sensor_id;sensor_type;location;lat;lon;timestamp;temperature;humidity
38020;DHT22;23829;51.350;17.286;2023-03-23T00:01:28;26.10;34.00
38020;DHT22;23829;51.350;17.286;2023-03-23T00:03:58;26.00;34.00
38020;DHT22;23829;51.350;17.286;2023-03-23T00:06:27;26.00;34.50
38020;DHT22;23829;51.350;17.286;2023-03-23T00:08:54;26.10;34.20
38020;DHT22;23829;51.350;17.286;2023-03-23T00:11:28;26.10;34.10
38020;DHT22;23829;51.350;17.286;2023-03-23T00:13:57;26.00;34.20
38020;DHT22;23829;51.350;17.286;2023-03-23T00:16:25;25.90;34.30
38020;DHT22;23829;51.350;17.286;2023-03-23T00:19:03;25.90;34.20
38020;DHT22;23829;51.350;17.286;2023-03-23T00:21:32;25.90;34.60
38020;DHT22;23829;51.350;17.286;2023-03-23T00:24:11;25.90;34.60
38020;DHT22;23829;51.350;17.286;2023-03-23T00:26:46;25.80;34.70
38020;DHT22;23829;51.350;17.286;2023-03-23T00:29:15;25.70;34.60
38020;DHT22;23829;51.350;17.286;2023-03-23T00:31:43;25.60;34.40
38020;DHT22;23829;51.350;17.286;2023-03-23T00:34:18;25.80;34.50
38020;DHT22;23829;51.350;17.286;2023-03-23T00:36:47;25.70;34.50
38020;DHT22;23829;51.350;17.286;2023-03-23T00:39:14;25.70;34.30
38020;DHT22;23829;51.350;17.286;2023-03-23T00:41:46;25.70;34.60
38020;DHT22;23829;51.350;17.286;2023-03-23T00:44:13;25.70;35.00
38020;DHT22;23829;51.350;17.286;2023-03-23T00:46:49;25.70;35.10
38020;DHT22;23829;51.350;17.286;2023-03-23T00:49:19;25.70;35.10
38020;DHT22;23829;51.350;17.286;2023-03-23T00:51:46;25.80;35.10
38020;DHT22;23829;51.350;17.286;2023-03-23T00:54:12;25.70;35.00
38020;DHT22;23829;51.350;17.286;2023-03-23T00:56:39;25.70;34.60
38020;DHT22;23829;51.350;17.286;2023-03-23T00:59:06;25.60;34.70
38020;DHT22;23829;51.350;17.286;2023-03-23T01:01:33;25.60;35.00
38020;DHT22;23829;51.350;17.286;2023-03-23T01:04:00;25.60;35.10
38020;DHT22;23829;51.350;17.286;2023-03-23T01:06:32;25.60;35.10
38020;DHT22;23829;51.350;17.286;2023-03-23T01:09:02;25.50;35.00
38020;DHT22;23829;51.350;17.286;2023-03-23T01:11:29;25.50;34.90
38020;DHT22;23829;51.350;17.286;2023-03-23T01:13:56;25.40;35.00
38020;DHT22;23829;51.350;17.286;2023-03-23T01:16:22;25.40;35.10
38020;DHT22;23829;51.350;17.286;2023-03-23T01:18:48;25.40;35.10
38020;DHT22;23829;51.350;17.286;2023-03-23T01:21:17;25.30;35.20
38020;DHT22;23829;51.350;17.286;2023-03-23T01:23:45;25.20;35.30
38020;DHT22;23829;51.350;17.286;2023-03-23T01:26:14;25.10;35.40
38020;DHT22;23829;51.350;17.286;2023-03-23T01:28:42;24.90;35.70
38020;DHT22;23829;51.350;17.286;2023-03-23T01:31:14;24.70;36.20
38020;DHT22;23829;51.350;17.286;2023-03-23T01:33:42;24.70;36.40
38020;DHT22;23829;51.350;17.286;2023-03-23T01:36:17;24.50;36.90
38020;DHT22;23829;51.350;17.286;2023-03-23T01:38:47;24.50;36.90
38020;DHT22;23829;51.350;17.286;2023-03-23T01:41:15;24.20;37.40
38020;DHT22;23829;51.350;17.286;2023-03-23T01:44:00;24.20;37.50
38020;DHT22;23829;51.350;17.286;2023-03-23T01:46:45;24.30;37.40
38020;DHT22;23829;51.350;17.286;2023-03-23T01:49:16;24.30;38.30
38020;DHT22;23829;51.350;17.286;2023-03-23T01:51:52;24.50;37.40
38020;DHT22;23829;51.350;17.286;2023-03-23T01:54:23;24.60;37.10
38020;DHT22;23829;51.350;17.286;2023-03-23T01:56:54;24.70;36.80
38020;DHT22;23829;51.350;17.286;2023-03-23T01:59:24;24.80;36.60
38020;DHT22;23829;51.350;17.286;2023-03-23T02:02:06;24.80;36.60
38020;DHT22;23829;51.350;17.286;2023-03-23T02:04:34;24.60;36.80
38020;DHT22;23829;51.350;17.286;2023-03-23T02:07:00;24.50;37.00
38020;DHT22;23829;51.350;17.286;2023-03-23T02:09:29;24.60;36.80
38020;DHT22;23829;51.350;17.286;2023-03-23T02:11:56;24.70;36.50
38020;DHT22;23829;51.350;17.286;2023-03-23T02:14:24;24.40;36.90
38020;DHT22;23829;51.350;17.286;2023-03-23T02:17:00;24.20;37.30
38020;DHT22;23829;51.350;17.286;2023-03-23T02:23:07;24.00;37.70
38020;DHT22;23829;51.350;17.286;2023-03-23T02:26:09;23.80;38.00
38020;DHT22;23829;51.350;17.286;2023-03-23T02:34:16;23.50;38.70
38020;DHT22;23829;51.350;17.286;2023-03-23T02:36:52;23.40;38.80
38020;DHT22;23829;51.350;17.286;2023-03-23T02:39:26;23.40;38.80
38020;DHT22;23829;51.350;17.286;2023-03-23T02:42:18;23.50;38.70
38020;DHT22;23829;51.350;17.286;2023-03-23T02:44:47;23.70;38.40
38020;DHT22;23829;51.350;17.286;2023-03-23T02:47:18;23.80;38.20
38020;DHT22;23829;51.350;17.286;2023-03-23T02:49:48;23.80;38.10
38020;DHT22;23829;51.350;17.286;2023-03-23T02:52:21;24.10;37.60
38020;DHT22;23829;51.350;17.286;2023-03-23T02:54:51;24.00;37.40
38020;DHT22;23829;51.350;17.286;2023-03-23T02:57:20;24.20;37.20
38020;DHT22;23829;51.350;17.286;2023-03-23T02:59:46;24.30;37.10
38020;DHT22;23829;51.350;17.286;2023-03-23T03:02:35;24.30;37.00
38020;DHT22;23829;51.350;17.286;2023-03-23T03:10:31;24.30;37.60
38020;DHT22;23829;51.350;17.286;2023-03-23T03:13:25;24.30;36.90
38020;DHT22;23829;51.350;17.286;2023-03-23T03:15:59;24.20;36.80
38020;DHT22;23829;51.350;17.286;2023-03-23T03:18:28;24.00;37.10
38020;DHT22;23829;51.350;17.286;2023-03-23T03:21:02;24.10;37.20
38020;DHT22;23829;51.350;17.286;2023-03-23T03:23:33;24.30;36.80
38020;DHT22;23829;51.350;17.286;2023-03-23T03:26:03;24.20;36.90
38020;DHT22;23829;51.350;17.286;2023-03-23T03:28:47;24.20;37.00
38020;DHT22;23829;51.350;17.286;2023-03-23T03:31:17;24.00;37.40
38020;DHT22;23829;51.350;17.286;2023-03-23T03:33:45;23.80;37.50
38020;DHT22;23829;51.350;17.286;2023-03-23T03:36:18;23.70;37.90
38020;DHT22;23829;51.350;17.286;2023-03-23T03:38:50;23.90;37.60
38020;DHT22;23829;51.350;17.286;2023-03-23T03:41:18;23.80;37.70
38020;DHT22;23829;51.350;17.286;2023-03-23T03:43:46;23.80;37.90
38020;DHT22;23829;51.350;17.286;2023-03-23T03:46:13;23.80;38.00
38020;DHT22;23829;51.350;17.286;2023-03-23T03:48:39;23.70;37.90
38020;DHT22;23829;51.350;17.286;2023-03-23T03:51:06;23.50;38.40
38020;DHT22;23829;51.350;17.286;2023-03-23T03:53:36;23.50;38.60
38020;DHT22;23829;51.350;17.286;2023-03-23T03:56:03;23.80;38.20
38020;DHT22;23829;51.350;17.286;2023-03-23T03:58:43;24.40;37.20
38020;DHT22;23829;51.350;17.286;2023-03-23T04:01:22;24.30;37.10
38020;DHT22;23829;51.350;17.286;2023-03-23T04:03:51;24.20;37.20
38020;DHT22;23829;51.350;17.286;2023-03-23T04:06:28;24.30;37.10
38020;DHT22;23829;51.350;17.286;2023-03-23T04:08:56;24.30;37.10
38020;DHT22;23829;51.350;17.286;2023-03-23T04:11:22;24.20;37.20
38020;DHT22;23829;51.350;17.286;2023-03-23T04:13:50;24.30;37.10
38020;DHT22;23829;51.350;17.286;2023-03-23T04:16:21;24.30;37.20
38020;DHT22;23829;51.350;17.286;2023-03-23T04:18:49;24.70;37.30
38020;DHT22;23829;51.350;17.286;2023-03-23T04:21:17;24.80;36.10
38020;DHT22;23829;51.350;17.286;2023-03-23T04:23:47;24.80;36.20
38020;DHT22;23829;51.350;17.286;2023-03-23T04:26:14;24.70;36.20
38020;DHT22;23829;51.350;17.286;2023-03-23T04:28:45;24.80;36.20
38020;DHT22;23829;51.350;17.286;2023-03-23T04:31:35;24.80;35.80
38020;DHT22;23829;51.350;17.286;2023-03-23T04:34:31;24.80;35.80
38020;DHT22;23829;51.350;17.286;2023-03-23T04:37:00;24.80;36.00
38020;DHT22;23829;51.350;17.286;2023-03-23T04:39:29;25.20;35.10
38020;DHT22;23829;51.350;17.286;2023-03-23T04:42:02;25.10;35.20
38020;DHT22;23829;51.350;17.286;2023-03-23T04:44:48;24.80;35.60
38020;DHT22;23829;51.350;17.286;2023-03-23T04:47:36;24.70;35.70
38020;DHT22;23829;51.350;17.286;2023-03-23T04:50:21;24.70;35.60
38020;DHT22;23829;51.350;17.286;2023-03-23T04:52:50;24.90;35.40
38020;DHT22;23829;51.350;17.286;2023-03-23T04:55:19;25.00;35.10
38020;DHT22;23829;51.350;17.286;2023-03-23T04:57:53;24.70;35.30
38020;DHT22;23829;51.350;17.286;2023-03-23T05:00:34;24.60;35.70
38020;DHT22;23829;51.350;17.286;2023-03-23T05:03:02;24.70;35.50
38020;DHT22;23829;51.350;17.286;2023-03-23T05:05:30;24.50;35.70
38020;DHT22;23829;51.350;17.286;2023-03-23T05:08:02;24.50;35.90
38020;DHT22;23829;51.350;17.286;2023-03-23T05:10:32;24.50;35.70
38020;DHT22;23829;51.350;17.286;2023-03-23T05:13:04;24.40;35.90
38020;DHT22;23829;51.350;17.286;2023-03-23T05:15:31;24.40;36.20
38020;DHT22;23829;51.350;17.286;2023-03-23T05:17:58;24.60;35.80
38020;DHT22;23829;51.350;17.286;2023-03-23T05:20:25;24.70;35.60
38020;DHT22;23829;51.350;17.286;2023-03-23T05:23:02;24.50;35.70
38020;DHT22;23829;51.350;17.286;2023-03-23T05:25:34;24.50;35.90
38020;DHT22;23829;51.350;17.286;2023-03-23T05:28:10;24.60;35.70
38020;DHT22;23829;51.350;17.286;2023-03-23T05:30:51;24.60;35.80
38020;DHT22;23829;51.350;17.286;2023-03-23T05:33:20;24.70;35.70
38020;DHT22;23829;51.350;17.286;2023-03-23T05:35:58;25.00;35.40
38020;DHT22;23829;51.350;17.286;2023-03-23T05:38:29;24.90;35.30
38020;DHT22;23829;51.350;17.286;2023-03-23T05:41:01;25.00;35.20
38020;DHT22;23829;51.350;17.286;2023-03-23T05:43:34;24.90;35.30
38020;DHT22;23829;51.350;17.286;2023-03-23T05:46:26;25.30;35.10
38020;DHT22;23829;51.350;17.286;2023-03-23T05:48:57;25.20;35.10
38020;DHT22;23829;51.350;17.286;2023-03-23T05:51:31;25.20;35.20
38020;DHT22;23829;51.350;17.286;2023-03-23T05:53:58;25.00;35.20
38020;DHT22;23829;51.350;17.286;2023-03-23T05:56:24;24.90;35.60
38020;DHT22;23829;51.350;17.286;2023-03-23T05:59:20;24.70;36.10
38020;DHT22;23829;51.350;17.286;2023-03-23T06:01:52;25.00;35.80
38020;DHT22;23829;51.350;17.286;2023-03-23T06:04:21;25.20;35.50
38020;DHT22;23829;51.350;17.286;2023-03-23T06:07:09;25.20;35.20
38020;DHT22;23829;51.350;17.286;2023-03-23T06:09:43;25.00;35.80
38020;DHT22;23829;51.350;17.286;2023-03-23T06:12:24;25.10;35.60
38020;DHT22;23829;51.350;17.286;2023-03-23T06:15:18;25.40;35.20
38020;DHT22;23829;51.350;17.286;2023-03-23T06:18:11;25.70;34.40
38020;DHT22;23829;51.350;17.286;2023-03-23T06:20:46;25.50;34.80
38020;DHT22;23829;51.350;17.286;2023-03-23T06:23:36;25.20;35.30
38020;DHT22;23829;51.350;17.286;2023-03-23T06:26:05;25.50;35.10
38020;DHT22;23829;51.350;17.286;2023-03-23T06:28:33;25.20;35.20
38020;DHT22;23829;51.350;17.286;2023-03-23T06:31:05;25.10;35.60
38020;DHT22;23829;51.350;17.286;2023-03-23T06:33:35;25.50;35.20
38020;DHT22;23829;51.350;17.286;2023-03-23T06:36:20;25.80;34.70
38020;DHT22;23829;51.350;17.286;2023-03-23T06:39:16;25.50;35.00
38020;DHT22;23829;51.350;17.286;2023-03-23T06:41:59;25.40;35.80
38020;DHT22;23829;51.350;17.286;2023-03-23T06:44:29;25.60;35.00
38020;DHT22;23829;51.350;17.286;2023-03-23T06:46:56;25.80;34.80
38020;DHT22;23829;51.350;17.286;2023-03-23T06:49:30;26.20;34.40
38020;DHT22;23829;51.350;17.286;2023-03-23T06:52:18;26.00;34.30
38020;DHT22;23829;51.350;17.286;2023-03-23T06:54:45;26.10;34.00
38020;DHT22;23829;51.350;17.286;2023-03-23T06:57:13;26.20;33.90
38020;DHT22;23829;51.350;17.286;2023-03-23T06:59:39;26.20;34.40
38020;DHT22;23829;51.350;17.286;2023-03-23T07:02:06;26.10;34.70
38020;DHT22;23829;51.350;17.286;2023-03-23T07:04:35;26.40;34.40
38020;DHT22;23829;51.350;17.286;2023-03-23T07:07:08;26.60;34.10
38020;DHT22;23829;51.350;17.286;2023-03-23T07:09:45;26.70;33.90
38020;DHT22;23829;51.350;17.286;2023-03-23T07:12:12;26.70;33.80
38020;DHT22;23829;51.350;17.286;2023-03-23T07:14:45;26.60;33.90
38020;DHT22;23829;51.350;17.286;2023-03-23T07:17:12;26.50;33.60
38020;DHT22;23829;51.350;17.286;2023-03-23T07:19:47;26.50;34.10
38020;DHT22;23829;51.350;17.286;2023-03-23T07:22:15;26.80;33.90
38020;DHT22;23829;51.350;17.286;2023-03-23T07:24:47;27.00;33.10
38020;DHT22;23829;51.350;17.286;2023-03-23T07:27:19;27.30;32.70
38020;DHT22;23829;51.350;17.286;2023-03-23T07:29:47;26.80;33.10
38020;DHT22;23829;51.350;17.286;2023-03-23T07:32:21;26.80;33.30
38020;DHT22;23829;51.350;17.286;2023-03-23T07:34:48;26.90;33.40
38020;DHT22;23829;51.350;17.286;2023-03-23T07:37:24;27.30;33.10
38020;DHT22;23829;51.350;17.286;2023-03-23T07:39:51;27.10;33.20
38020;DHT22;23829;51.350;17.286;2023-03-23T07:42:17;27.10;33.40
38020;DHT22;23829;51.350;17.286;2023-03-23T07:44:54;27.40;33.30
38020;DHT22;23829;51.350;17.286;2023-03-23T07:47:21;27.20;34.30
38020;DHT22;23829;51.350;17.286;2023-03-23T07:49:48;26.80;34.30
38020;DHT22;23829;51.350;17.286;2023-03-23T07:52:35;26.70;34.70
38020;DHT22;23829;51.350;17.286;2023-03-23T07:55:03;26.60;35.10
38020;DHT22;23829;51.350;17.286;2023-03-23T07:57:47;26.60;35.20
38020;DHT22;23829;51.350;17.286;2023-03-23T08:00:17;26.50;35.40
38020;DHT22;23829;51.350;17.286;2023-03-23T08:02:53;26.50;35.50
38020;DHT22;23829;51.350;17.286;2023-03-23T08:05:42;26.50;35.40
38020;DHT22;23829;51.350;17.286;2023-03-23T08:08:44;26.60;35.90
38020;DHT22;23829;51.350;17.286;2023-03-23T08:11:30;27.00;35.20
38020;DHT22;23829;51.350;17.286;2023-03-23T08:14:22;27.30;34.90
38020;DHT22;23829;51.350;17.286;2023-03-23T08:17:13;27.20;34.90
38020;DHT22;23829;51.350;17.286;2023-03-23T08:20:03;27.60;34.40
38020;DHT22;23829;51.350;17.286;2023-03-23T08:23:02;28.00;34.10
38020;DHT22;23829;51.350;17.286;2023-03-23T08:25:38;28.00;33.60
38020;DHT22;23829;51.350;17.286;2023-03-23T08:28:23;27.80;33.90
38020;DHT22;23829;51.350;17.286;2023-03-23T08:31:13;27.70;34.00
38020;DHT22;23829;51.350;17.286;2023-03-23T08:33:53;27.90;34.10
38020;DHT22;23829;51.350;17.286;2023-03-23T08:36:27;27.90;33.80
38020;DHT22;23829;51.350;17.286;2023-03-23T08:39:26;28.00;33.80
38020;DHT22;23829;51.350;17.286;2023-03-23T08:41:53;27.90;33.70
38020;DHT22;23829;51.350;17.286;2023-03-23T08:44:40;28.00;33.70
38020;DHT22;23829;51.350;17.286;2023-03-23T08:47:46;27.70;34.70
38020;DHT22;23829;51.350;17.286;2023-03-23T08:50:35;28.10;33.90
38020;DHT22;23829;51.350;17.286;2023-03-23T08:53:20;28.40;33.60
38020;DHT22;23829;51.350;17.286;2023-03-23T08:55:48;28.40;33.00
38020;DHT22;23829;51.350;17.286;2023-03-23T08:58:35;28.70;32.70
38020;DHT22;23829;51.350;17.286;2023-03-23T09:01:06;28.60;32.80
38020;DHT22;23829;51.350;17.286;2023-03-23T09:03:44;29.10;32.70
38020;DHT22;23829;51.350;17.286;2023-03-23T09:06:26;29.10;31.90
38020;DHT22;23829;51.350;17.286;2023-03-23T09:08:53;29.60;31.30
38020;DHT22;23829;51.350;17.286;2023-03-23T09:11:22;29.80;31.20
38020;DHT22;23829;51.350;17.286;2023-03-23T09:13:48;29.70;31.40
38020;DHT22;23829;51.350;17.286;2023-03-23T09:16:15;30.20;30.60
38020;DHT22;23829;51.350;17.286;2023-03-23T09:18:41;30.30;30.20
38020;DHT22;23829;51.350;17.286;2023-03-23T09:21:08;30.20;30.30
38020;DHT22;23829;51.350;17.286;2023-03-23T09:23:35;30.70;29.90
38020;DHT22;23829;51.350;17.286;2023-03-23T09:26:02;30.60;29.60
38020;DHT22;23829;51.350;17.286;2023-03-23T09:28:29;30.80;29.30
38020;DHT22;23829;51.350;17.286;2023-03-23T09:30:57;30.70;29.80
38020;DHT22;23829;51.350;17.286;2023-03-23T09:33:25;30.70;29.00
38020;DHT22;23829;51.350;17.286;2023-03-23T09:35:52;30.60;29.40
38020;DHT22;23829;51.350;17.286;2023-03-23T09:38:18;30.80;29.10
38020;DHT22;23829;51.350;17.286;2023-03-23T09:40:47;30.70;29.10
38020;DHT22;23829;51.350;17.286;2023-03-23T09:43:43;30.80;29.20
38020;DHT22;23829;51.350;17.286;2023-03-23T09:48:56;30.80;29.30
38020;DHT22;23829;51.350;17.286;2023-03-23T09:56:47;30.70;29.70
38020;DHT22;23829;51.350;17.286;2023-03-23T09:59:37;30.50;30.00
38020;DHT22;23829;51.350;17.286;2023-03-23T10:02:48;30.80;29.90
38020;DHT22;23829;51.350;17.286;2023-03-23T10:07:50;31.30;29.00
38020;DHT22;23829;51.350;17.286;2023-03-23T10:10:16;31.30;29.20
38020;DHT22;23829;51.350;17.286;2023-03-23T10:12:56;31.20;29.10
38020;DHT22;23829;51.350;17.286;2023-03-23T10:15:26;31.10;29.40
38020;DHT22;23829;51.350;17.286;2023-03-23T10:20:55;31.40;28.80
38020;DHT22;23829;51.350;17.286;2023-03-23T10:23:51;31.20;29.00
38020;DHT22;23829;51.350;17.286;2023-03-23T10:29:26;31.20;28.60
38020;DHT22;23829;51.350;17.286;2023-03-23T10:32:00;30.60;28.80
38020;DHT22;23829;51.350;17.286;2023-03-23T10:37:29;30.60;28.80
38020;DHT22;23829;51.350;17.286;2023-03-23T10:40:00;30.40;29.00
38020;DHT22;23829;51.350;17.286;2023-03-23T10:42:34;30.70;28.70
38020;DHT22;23829;51.350;17.286;2023-03-23T10:45:22;30.50;28.90
38020;DHT22;23829;51.350;17.286;2023-03-23T10:48:06;30.50;29.20
38020;DHT22;23829;51.350;17.286;2023-03-23T10:50:37;30.70;29.00
38020;DHT22;23829;51.350;17.286;2023-03-23T10:53:13;30.70;28.90
38020;DHT22;23829;51.350;17.286;2023-03-23T10:55:42;30.90;28.50
38020;DHT22;23829;51.350;17.286;2023-03-23T10:58:13;30.80;29.20
38020;DHT22;23829;51.350;17.286;2023-03-23T11:00:48;30.50;29.10
38020;DHT22;23829;51.350;17.286;2023-03-23T11:05:52;30.60;28.90
38020;DHT22;23829;51.350;17.286;2023-03-23T11:08:21;30.20;29.10
38020;DHT22;23829;51.350;17.286;2023-03-23T11:10:58;30.20;29.10
38020;DHT22;23829;51.350;17.286;2023-03-23T11:13:32;30.10;29.30
38020;DHT22;23829;51.350;17.286;2023-03-23T11:15:59;30.30;29.00
38020;DHT22;23829;51.350;17.286;2023-03-23T11:18:41;30.30;28.90
38020;DHT22;23829;51.350;17.286;2023-03-23T11:21:12;30.40;28.80
38020;DHT22;23829;51.350;17.286;2023-03-23T11:23:42;30.00;29.00
38020;DHT22;23829;51.350;17.286;2023-03-23T11:26:14;30.60;28.60
38020;DHT22;23829;51.350;17.286;2023-03-23T11:31:33;29.90;28.80
38020;DHT22;23829;51.350;17.286;2023-03-23T11:34:03;29.80;29.20
38020;DHT22;23829;51.350;17.286;2023-03-23T11:36:37;30.10;28.90
38020;DHT22;23829;51.350;17.286;2023-03-23T11:41:47;30.40;29.50
38020;DHT22;23829;51.350;17.286;2023-03-23T11:44:14;30.40;28.70
38020;DHT22;23829;51.350;17.286;2023-03-23T11:46:57;30.30;28.80
38020;DHT22;23829;51.350;17.286;2023-03-23T11:49:33;30.30;29.30
38020;DHT22;23829;51.350;17.286;2023-03-23T11:52:14;30.60;28.90
38020;DHT22;23829;51.350;17.286;2023-03-23T11:55:00;30.60;29.00
38020;DHT22;23829;51.350;17.286;2023-03-23T11:57:28;30.70;28.40
38020;DHT22;23829;51.350;17.286;2023-03-23T11:59:56;30.80;28.90
38020;DHT22;23829;51.350;17.286;2023-03-23T12:02:39;30.80;28.90
38020;DHT22;23829;51.350;17.286;2023-03-23T12:14:40;30.30;29.00
38020;DHT22;23829;51.350;17.286;2023-03-23T12:20:16;30.50;29.40
38020;DHT22;23829;51.350;17.286;2023-03-23T12:23:22;30.60;28.90
38020;DHT22;23829;51.350;17.286;2023-03-23T12:25:56;30.70;29.00
38020;DHT22;23829;51.350;17.286;2023-03-23T12:33:33;30.90;28.80
38020;DHT22;23829;51.350;17.286;2023-03-23T12:41:58;30.70;29.00
38020;DHT22;23829;51.350;17.286;2023-03-23T12:44:39;30.90;28.80
38020;DHT22;23829;51.350;17.286;2023-03-23T12:50:15;31.10;28.60
38020;DHT22;23829;51.350;17.286;2023-03-23T12:53:05;30.90;28.60
38020;DHT22;23829;51.350;17.286;2023-03-23T12:55:38;31.00;28.80
38020;DHT22;23829;51.350;17.286;2023-03-23T12:58:17;31.10;28.60
38020;DHT22;23829;51.350;17.286;2023-03-23T13:06:36;31.50;28.40
38020;DHT22;23829;51.350;17.286;2023-03-23T13:09:43;31.30;28.40
38020;DHT22;23829;51.350;17.286;2023-03-23T13:12:14;30.90;28.70
38020;DHT22;23829;51.350;17.286;2023-03-23T13:15:01;31.20;28.80
38020;DHT22;23829;51.350;17.286;2023-03-23T13:26:07;30.70;29.30
38020;DHT22;23829;51.350;17.286;2023-03-23T13:31:17;30.40;29.80
38020;DHT22;23829;51.350;17.286;2023-03-23T13:33:52;30.60;29.60
38020;DHT22;23829;51.350;17.286;2023-03-23T13:36:35;30.50;29.20
38020;DHT22;23829;51.350;17.286;2023-03-23T13:39:04;30.60;29.50
38020;DHT22;23829;51.350;17.286;2023-03-23T13:41:34;30.60;29.10
38020;DHT22;23829;51.350;17.286;2023-03-23T13:47:27;30.70;29.40
38020;DHT22;23829;51.350;17.286;2023-03-23T13:49:59;30.70;29.90
38020;DHT22;23829;51.350;17.286;2023-03-23T14:05:41;30.80;29.60
38020;DHT22;23829;51.350;17.286;2023-03-23T14:10:59;31.00;29.40
38020;DHT22;23829;51.350;17.286;2023-03-23T14:16:31;30.90;29.80
38020;DHT22;23829;51.350;17.286;2023-03-23T14:19:03;31.00;29.70
38020;DHT22;23829;51.350;17.286;2023-03-23T14:21:39;31.10;29.60
38020;DHT22;23829;51.350;17.286;2023-03-23T14:24:10;30.80;29.70
38020;DHT22;23829;51.350;17.286;2023-03-23T14:26:38;31.00;30.00
38020;DHT22;23829;51.350;17.286;2023-03-23T14:29:06;31.10;29.50
38020;DHT22;23829;51.350;17.286;2023-03-23T14:31:35;31.20;29.50
38020;DHT22;23829;51.350;17.286;2023-03-23T14:34:04;31.20;29.50
38020;DHT22;23829;51.350;17.286;2023-03-23T14:36:37;30.90;29.70
38020;DHT22;23829;51.350;17.286;2023-03-23T14:39:23;31.00;29.90
38020;DHT22;23829;51.350;17.286;2023-03-23T14:41:51;30.80;29.80
38020;DHT22;23829;51.350;17.286;2023-03-23T14:44:27;30.90;30.10
38020;DHT22;23829;51.350;17.286;2023-03-23T14:46:55;31.00;29.80
38020;DHT22;23829;51.350;17.286;2023-03-23T14:49:34;31.00;29.80
38020;DHT22;23829;51.350;17.286;2023-03-23T14:52:14;30.90;29.80
38020;DHT22;23829;51.350;17.286;2023-03-23T14:54:42;31.00;30.00
38020;DHT22;23829;51.350;17.286;2023-03-23T14:57:20;31.10;29.40
38020;DHT22;23829;51.350;17.286;2023-03-23T14:59:52;31.30;29.50
38020;DHT22;23829;51.350;17.286;2023-03-23T15:02:38;30.80;29.50
38020;DHT22;23829;51.350;17.286;2023-03-23T15:05:13;30.80;29.60
38020;DHT22;23829;51.350;17.286;2023-03-23T15:07:43;30.80;29.70
38020;DHT22;23829;51.350;17.286;2023-03-23T15:10:19;30.90;29.80
38020;DHT22;23829;51.350;17.286;2023-03-23T15:12:48;30.70;30.20
38020;DHT22;23829;51.350;17.286;2023-03-23T15:15:31;30.90;29.80
38020;DHT22;23829;51.350;17.286;2023-03-23T15:17:59;30.40;29.90
38020;DHT22;23829;51.350;17.286;2023-03-23T15:20:32;30.60;30.00
38020;DHT22;23829;51.350;17.286;2023-03-23T15:23:15;30.50;29.90
38020;DHT22;23829;51.350;17.286;2023-03-23T15:25:51;30.20;30.50
38020;DHT22;23829;51.350;17.286;2023-03-23T15:28:20;30.30;30.20
38020;DHT22;23829;51.350;17.286;2023-03-23T15:30:54;30.50;30.00
38020;DHT22;23829;51.350;17.286;2023-03-23T15:33:22;30.50;29.90
38020;DHT22;23829;51.350;17.286;2023-03-23T15:35:54;30.90;29.50
38020;DHT22;23829;51.350;17.286;2023-03-23T15:38:24;30.70;30.30
38020;DHT22;23829;51.350;17.286;2023-03-23T15:40:52;30.90;29.80
38020;DHT22;23829;51.350;17.286;2023-03-23T15:43:19;31.00;29.70
38020;DHT22;23829;51.350;17.286;2023-03-23T15:46:00;30.90;29.80
38020;DHT22;23829;51.350;17.286;2023-03-23T15:48:31;30.80;29.80
38020;DHT22;23829;51.350;17.286;2023-03-23T15:50:59;31.00;29.70
38020;DHT22;23829;51.350;17.286;2023-03-23T15:53:32;30.90;29.90
38020;DHT22;23829;51.350;17.286;2023-03-23T15:56:02;30.80;29.90
38020;DHT22;23829;51.350;17.286;2023-03-23T15:58:29;30.60;30.20
38020;DHT22;23829;51.350;17.286;2023-03-23T16:00:56;30.50;30.20
38020;DHT22;23829;51.350;17.286;2023-03-23T16:03:52;30.50;30.40
38020;DHT22;23829;51.350;17.286;2023-03-23T16:06:19;30.50;30.40
38020;DHT22;23829;51.350;17.286;2023-03-23T16:08:46;30.40;31.00
38020;DHT22;23829;51.350;17.286;2023-03-23T16:11:14;30.50;30.70
38020;DHT22;23829;51.350;17.286;2023-03-23T16:13:41;30.40;30.70
38020;DHT22;23829;51.350;17.286;2023-03-23T16:16:30;30.40;30.90
38020;DHT22;23829;51.350;17.286;2023-03-23T16:18:57;30.40;30.80
38020;DHT22;23829;51.350;17.286;2023-03-23T16:21:24;30.50;30.60
38020;DHT22;23829;51.350;17.286;2023-03-23T16:23:50;30.60;30.90
38020;DHT22;23829;51.350;17.286;2023-03-23T16:26:17;30.70;30.90
38020;DHT22;23829;51.350;17.286;2023-03-23T16:28:43;30.40;30.90
38020;DHT22;23829;51.350;17.286;2023-03-23T16:31:10;30.60;30.90
38020;DHT22;23829;51.350;17.286;2023-03-23T16:33:37;30.30;31.50
38020;DHT22;23829;51.350;17.286;2023-03-23T16:36:04;30.30;31.50
38020;DHT22;23829;51.350;17.286;2023-03-23T16:38:30;30.10;31.40
38020;DHT22;23829;51.350;17.286;2023-03-23T16:40:57;30.20;31.40
38020;DHT22;23829;51.350;17.286;2023-03-23T16:43:23;30.00;31.80
38020;DHT22;23829;51.350;17.286;2023-03-23T16:45:54;30.10;32.00
38020;DHT22;23829;51.350;17.286;2023-03-23T16:48:21;30.10;31.60
38020;DHT22;23829;51.350;17.286;2023-03-23T16:50:48;30.10;31.70
38020;DHT22;23829;51.350;17.286;2023-03-23T16:53:16;30.00;31.70
38020;DHT22;23829;51.350;17.286;2023-03-23T16:55:42;30.10;31.70
38020;DHT22;23829;51.350;17.286;2023-03-23T16:58:13;30.10;32.00
38020;DHT22;23829;51.350;17.286;2023-03-23T17:00:40;29.90;32.00
38020;DHT22;23829;51.350;17.286;2023-03-23T17:03:07;30.00;32.30
38020;DHT22;23829;51.350;17.286;2023-03-23T17:05:35;29.90;32.30
38020;DHT22;23829;51.350;17.286;2023-03-23T17:08:03;29.90;32.10
38020;DHT22;23829;51.350;17.286;2023-03-23T17:10:30;30.20;31.70
38020;DHT22;23829;51.350;17.286;2023-03-23T17:12:57;29.90;31.90
38020;DHT22;23829;51.350;17.286;2023-03-23T17:15:23;30.00;32.30
38020;DHT22;23829;51.350;17.286;2023-03-23T17:17:51;29.90;32.70
38020;DHT22;23829;51.350;17.286;2023-03-23T17:20:18;30.10;32.10
38020;DHT22;23829;51.350;17.286;2023-03-23T17:22:44;29.80;32.70
38020;DHT22;23829;51.350;17.286;2023-03-23T17:25:11;29.70;32.90
38020;DHT22;23829;51.350;17.286;2023-03-23T17:27:38;29.80;32.70
38020;DHT22;23829;51.350;17.286;2023-03-23T17:30:06;29.90;32.70
38020;DHT22;23829;51.350;17.286;2023-03-23T17:32:33;29.90;32.70
38020;DHT22;23829;51.350;17.286;2023-03-23T17:35:00;29.90;32.70
38020;DHT22;23829;51.350;17.286;2023-03-23T17:37:26;29.80;33.00
38020;DHT22;23829;51.350;17.286;2023-03-23T17:39:53;29.80;33.00
38020;DHT22;23829;51.350;17.286;2023-03-23T17:42:19;29.70;33.10